Time;durP1;ratioP1;P1;durP2;ratioP2;P2;SDS_P1;SDS_P2;PMS_P1;PMS_P2;Temp;Humidity;BMP_temperature;BMP_pressure;BME280_temperature;BME280_humidity;BME280_pressure;Samples;Min_cycle;Max_cycle;Signal;HPM_P1;HPM_P2
2021/06/25 00:00:51;;;;;;;6.15;1.08;;;;;;;29.38;38.55;96848.88;4930545;28;20026;-37
2021/06/25 00:03:17;;;;;;;4.63;1.00;;;;;;;29.37;38.69;96842.72;4936368;28;20719;-36
2021/06/25 00:05:42;;;;;;;0.70;0.70;;;;;;;29.38;38.84;96833.88;4947645;28;20039;-38
2021/06/25 00:08:07;;;;;;;4.88;1.13;;;;;;;29.37;38.39;96832.19;4935434;28;20022;-38
2021/06/25 00:10:33;;;;;;;2.00;1.00;;;;;;;29.38;38.54;96836.53;4935122;28;20133;-38
2021/06/25 00:12:58;;;;;;;1.00;0.80;;;;;;;29.38;38.66;96839.16;4949936;28;20066;-36
2021/06/25 00:15:24;;;;;;;1.08;0.80;;;;;;;29.38;38.65;96836.53;4933764;28;20043;-41
2021/06/25 00:17:49;;;;;;;1.75;1.05;;;;;;;29.38;38.77;96839.16;4935315;28;20031;-41
2021/06/25 00:20:15;;;;;;;1.80;0.80;;;;;;;29.39;38.74;96832.06;4942836;28;20031;-39
2021/06/25 00:22:41;;;;;;;1.52;0.70;;;;;;;29.39;38.70;96837.34;4935781;28;20450;-35
2021/06/25 00:25:07;;;;;;;3.90;0.90;;;;;;;29.38;38.48;96841.81;4929133;28;20549;-36
2021/06/25 00:27:33;;;;;;;1.98;0.90;;;;;;;29.38;38.62;96839.16;4930634;28;20046;-34
2021/06/25 00:29:58;;;;;;;2.20;1.00;;;;;;;29.38;38.81;96835.66;4932446;28;20434;-40
2021/06/25 00:32:24;;;;;;;2.20;0.77;;;;;;;29.38;38.65;96836.53;4929926;28;20066;-33
2021/06/25 00:34:49;;;;;;;1.60;0.80;;;;;;;29.38;38.73;96838.31;4929299;28;20702;-37
2021/06/25 00:37:14;;;;;;;2.10;0.73;;;;;;;29.38;38.57;96840.94;4933487;28;20046;-32
2021/06/25 00:39:40;;;;;;;0.68;0.68;;;;;;;29.37;38.43;96842.72;4965977;28;20097;-41
2021/06/25 00:42:07;;;;;;;0.85;0.65;;;;;;;29.39;38.27;96847.91;4946248;28;20712;-30
2021/06/25 00:44:32;;;;;;;1.33;0.68;;;;;;;29.38;38.37;96839.16;4934373;28;20031;-38
2021/06/25 00:46:58;;;;;;;0.82;0.68;;;;;;;29.39;38.63;96845.28;4934089;28;20042;-37
2021/06/25 00:49:23;;;;;;;1.35;0.70;;;;;;;29.39;38.48;96842.63;4935020;28;20075;-42
2021/06/25 00:51:48;;;;;;;3.00;0.80;;;;;;;29.38;38.33;96838.31;4931062;28;20387;-40
2021/06/25 00:54:14;;;;;;;0.90;0.75;;;;;;;29.39;38.11;96846.13;4932269;28;20043;-40
2021/06/25 00:56:40;;;;;;;1.05;0.60;;;;;;;29.37;38.13;96831.34;4931371;28;20056;-38
2021/06/25 00:59:05;;;;;;;1.65;0.52;;;;;;;29.38;38.40;96836.53;4935988;28;20033;-38
2021/06/25 01:01:31;;;;;;;1.02;0.60;;;;;;;29.39;38.63;96829.44;4932244;28;20554;-40
2021/06/25 01:03:56;;;;;;;4.03;0.70;;;;;;;29.39;38.25;96837.34;4933654;28;20022;-41
2021/06/25 01:06:23;;;;;;;2.15;0.70;;;;;;;29.39;38.53;96834.72;4937885;28;20035;-36
2021/06/25 01:08:48;;;;;;;3.25;0.77;;;;;;;29.38;38.14;96836.53;4951395;28;20038;-37
2021/06/25 01:11:13;;;;;;;2.30;0.68;;;;;;;29.38;38.29;96839.16;4963722;28;20054;-39
2021/06/25 01:13:39;;;;;;;0.50;0.50;;;;;;;29.39;38.40;96832.94;4943455;28;20039;-31
2021/06/25 01:16:05;;;;;;;0.43;0.43;;;;;;;29.39;38.18;96835.56;4947409;28;20019;-35
2021/06/25 01:18:31;;;;;;;1.00;0.50;;;;;;;29.36;38.25;96829.66;4949480;28;20138;-35
2021/06/25 01:20:58;;;;;;;1.40;0.40;;;;;;;29.38;38.21;96839.16;4944032;28;20031;-37
2021/06/25 01:23:23;;;;;;;1.23;0.63;;;;;;;29.39;38.38;96840.84;4936098;28;20046;-39
2021/06/25 01:25:48;;;;;;;0.73;0.50;;;;;;;29.38;38.25;96844.44;4937474;28;20658;-41
2021/06/25 01:28:14;;;;;;;1.10;0.50;;;;;;;29.39;38.21;96842.63;4939576;28;20034;-38
2021/06/25 01:30:44;;;;;;;1.23;0.55;;;;;;;29.38;38.14;96833.88;4936947;28;20061;-37
2021/06/25 01:33:17;;;;;;;1.77;0.52;;;;;;;29.39;38.30;96840.00;4939922;28;20082;-38
2021/06/25 01:35:42;;;;;;;0.90;0.55;;;;;;;29.39;38.10;96837.34;4966924;28;21098;-39
2021/06/25 01:38:10;;;;;;;2.45;0.50;;;;;;;29.39;38.29;96838.22;4936237;28;20030;-36
2021/06/25 01:40:36;;;;;;;0.75;0.50;;;;;;;29.39;38.17;96834.72;4946176;28;20026;-39
2021/06/25 01:43:02;;;;;;;1.20;0.70;;;;;;;29.39;38.48;96830.28;4950069;28;20023;-37
2021/06/25 01:45:29;;;;;;;0.70;0.50;;;;;;;29.39;38.04;96824.16;4934948;28;20137;-39
2021/06/25 01:47:54;;;;;;;0.98;0.63;;;;;;;29.38;38.31;96823.31;4937506;28;20149;-32
2021/06/25 01:50:21;;;;;;;1.85;1.15;;;;;;;29.39;37.82;96825.00;4936395;28;20056;-34
2021/06/25 01:52:57;;;;;;;1.08;0.80;;;;;;;29.38;37.82;96814.56;4936012;28;20031;-37
2021/06/25 01:55:23;;;;;;;1.67;0.60;;;;;;;29.38;38.02;96815.41;4935831;28;20384;-32
2021/06/25 01:57:48;;;;;;;0.40;0.38;;;;;;;29.39;38.27;96814.47;4950285;28;20039;-36
2021/06/25 02:00:14;;;;;;;0.55;0.40;;;;;;;29.38;37.80;96812.78;4935620;28;20023;-39
2021/06/25 02:02:40;;;;;;;0.43;0.40;;;;;;;29.38;38.22;96807.50;4933417;28;20130;-39
2021/06/25 02:05:06;;;;;;;0.68;0.40;;;;;;;29.39;37.81;96814.47;4933003;28;20030;-35
2021/06/25 02:07:32;;;;;;;0.90;0.40;;;;;;;29.38;38.02;96812.78;4967372;28;20042;-31
2021/06/25 02:09:57;;;;;;;1.65;0.50;;;;;;;29.38;37.83;96812.78;4934138;28;20034;-39
2021/06/25 02:12:24;;;;;;;1.85;0.50;;;;;;;29.38;38.10;96812.78;4930821;28;20035;-30
2021/06/25 02:14:49;;;;;;;0.52;0.43;;;;;;;29.40;38.04;96812.69;4929389;28;20529;-37
2021/06/25 02:17:16;;;;;;;1.90;0.50;;;;;;;29.38;37.90;96807.50;4937157;28;20039;-38
2021/06/25 02:19:42;;;;;;;1.08;0.40;;;;;;;29.38;38.19;96806.63;4937202;28;20118;-38
2021/06/25 02:22:07;;;;;;;0.73;0.50;;;;;;;29.39;38.08;96818.88;4932737;28;20023;-45
2021/06/25 02:24:33;;;;;;;0.68;0.40;;;;;;;29.38;37.93;96812.78;4937617;28;20811;-34
2021/06/25 02:26:58;;;;;;;0.70;0.45;;;;;;;29.38;38.27;96807.50;4934768;28;20097;-36
2021/06/25 02:29:23;;;;;;;0.60;0.45;;;;;;;29.39;38.01;96813.59;4932139;28;20097;-38
2021/06/25 02:31:49;;;;;;;2.08;0.65;;;;;;;29.40;38.18;96810.03;4934576;28;20750;-35
2021/06/25 02:34:14;;;;;;;0.52;0.43;;;;;;;29.39;37.82;96811.81;4937529;28;20038;-38
2021/06/25 02:36:39;;;;;;;2.15;0.63;;;;;;;29.39;37.99;96819.72;4932830;28;20031;-41
2021/06/25 02:39:05;;;;;;;1.05;0.50;;;;;;;29.39;37.88;96822.38;4933424;28;20131;-36
2021/06/25 02:41:31;;;;;;;1.08;0.60;;;;;;;29.41;38.04;96823.09;4935976;28;20101;-34
2021/06/25 02:43:56;;;;;;;0.60;0.50;;;;;;;29.39;37.72;96817.09;4951331;28;20027;-38
2021/06/25 02:46:21;;;;;;;0.47;0.43;;;;;;;29.39;38.16;96817.09;4936346;28;20061;-40
2021/06/25 02:48:47;;;;;;;5.38;0.50;;;;;;;29.39;38.22;96819.72;4934641;28;20034;-33
2021/06/25 02:51:12;;;;;;;4.18;0.52;;;;;;;29.33;38.19;96806.97;4927995;28;20030;-39
2021/06/25 02:53:38;;;;;;;1.30;0.65;;;;;;;29.40;38.10;96815.31;4935349;28;20690;-35
2021/06/25 02:56:03;;;;;;;0.40;0.40;;;;;;;29.40;38.21;96818.78;4937761;28;20023;-38
2021/06/25 02:58:31;;;;;;;0.98;0.55;;;;;;;29.41;37.74;96817.00;4952371;28;20780;-36
2021/06/25 03:00:56;;;;;;;1.02;0.40;;;;;;;29.40;38.17;96813.50;4934776;28;20034;-36
2021/06/25 03:03:22;;;;;;;0.88;0.30;;;;;;;29.40;37.79;96816.13;4937096;28;20037;-43
2021/06/25 03:05:47;;;;;;;1.10;0.52;;;;;;;29.40;38.10;96810.84;4934121;28;20178;-39
2021/06/25 03:08:13;;;;;;;1.05;0.40;;;;;;;29.40;37.82;96821.41;4936676;28;20065;-41
2021/06/25 03:10:41;;;;;;;2.38;0.60;;;;;;;29.40;37.67;96816.13;4934679;28;20037;-31
2021/06/25 03:13:06;;;;;;;0.50;0.50;;;;;;;29.39;37.92;96814.47;4933699;28;20802;-35
2021/06/25 03:15:31;;;;;;;0.88;0.50;;;;;;;29.39;38.15;96819.72;4934479;28;20039;-40
2021/06/25 03:17:57;;;;;;;0.77;0.40;;;;;;;29.38;37.72;96812.78;4937871;28;20027;-39
2021/06/25 03:20:22;;;;;;;10.15;1.30;;;;;;;29.39;38.02;96819.72;4936562;28;20033;-42
2021/06/25 03:22:47;;;;;;;1.13;0.55;;;;;;;29.40;37.72;96815.31;4932985;28;20859;-39
2021/06/25 03:25:13;;;;;;;1.02;0.50;;;;;;;29.39;37.87;96810.97;4932891;28;20094;-34
2021/06/25 03:27:38;;;;;;;0.65;0.40;;;;;;;29.39;37.80;96810.97;4935795;28;20041;-40
2021/06/25 03:30:05;;;;;;;2.45;0.80;;;;;;;29.38;37.84;96811.91;4936336;28;20494;-35
2021/06/25 03:32:30;;;;;;;0.60;0.47;;;;;;;29.39;37.98;96813.59;4936251;28;20035;-34
2021/06/25 03:34:56;;;;;;;0.65;0.50;;;;;;;29.39;38.07;96809.19;4937512;28;20657;-41
2021/06/25 03:37:21;;;;;;;1.02;0.40;;;;;;;29.38;37.88;96806.63;4933768;28;20685;-41
2021/06/25 03:39:47;;;;;;;0.95;0.50;;;;;;;29.38;37.99;96812.78;4933748;28;20089;-39
2021/06/25 03:42:12;;;;;;;0.50;0.50;;;;;;;29.38;38.10;96801.34;4932451;28;20042;-38
2021/06/25 03:44:38;;;;;;;3.42;0.50;;;;;;;29.38;37.82;96807.50;4930334;28;20035;-39
2021/06/25 03:47:03;;;;;;;0.52;0.50;;;;;;;29.38;37.63;96807.50;4935648;28;20042;-40
2021/06/25 03:49:29;;;;;;;0.45;0.30;;;;;;;29.37;37.83;96804.94;4949891;28;20030;-44
2021/06/25 03:51:54;;;;;;;1.92;0.60;;;;;;;29.38;37.63;96806.63;4931360;28;20150;-39
2021/06/25 03:54:19;;;;;;;0.85;0.40;;;;;;;29.37;38.08;96804.94;4932352;28;20045;-34
2021/06/25 03:56:46;;;;;;;0.40;0.32;;;;;;;29.37;37.89;96808.41;4932844;28;20806;-33
2021/06/25 03:59:11;;;;;;;0.95;0.43;;;;;;;29.37;37.58;96802.31;4934986;28;20063;-39
2021/06/25 04:01:37;;;;;;;3.55;0.60;;;;;;;29.37;37.99;96800.50;4934361;28;20577;-34
2021/06/25 04:04:02;;;;;;;0.73;0.40;;;;;;;29.37;37.97;96799.66;4936087;28;20039;-37
2021/06/25 04:06:27;;;;;;;0.55;0.43;;;;;;;29.37;38.00;96802.31;4935821;28;20042;-35
2021/06/25 04:08:56;;;;;;;0.52;0.40;;;;;;;29.37;37.52;96799.66;4929455;28;20031;-37
2021/06/25 04:11:21;;;;;;;0.73;0.50;;;;;;;29.29;38.00;96787.00;4937050;28;20718;-40
2021/06/25 04:13:47;;;;;;;0.57;0.50;;;;;;;29.37;37.86;96799.66;4932147;28;20257;-38
2021/06/25 04:16:13;;;;;;;1.05;0.50;;;;;;;29.37;38.07;96803.13;4932843;28;20041;-33
2021/06/25 04:18:38;;;;;;;1.02;0.40;;;;;;;29.37;37.77;96797.84;4932560;28;20066;-35
2021/06/25 04:21:04;;;;;;;2.28;0.50;;;;;;;29.38;37.80;96806.63;4945259;28;21045;-36
2021/06/25 04:23:29;;;;;;;1.95;0.50;;;;;;;29.37;37.68;96799.66;4932096;28;20031;-33
2021/06/25 04:25:54;;;;;;;0.90;0.35;;;;;;;29.36;37.72;96804.09;4935551;28;20034;-32
2021/06/25 04:28:20;;;;;;;2.15;0.60;;;;;;;29.37;37.89;96797.84;4930254;28;20023;-37
2021/06/25 04:30:46;;;;;;;2.08;0.40;;;;;;;29.36;37.89;96796.19;4929771;28;20073;-39
2021/06/25 04:33:14;;;;;;;1.58;0.60;;;;;;;29.36;37.70;96804.09;4942703;28;20168;-39
2021/06/25 04:35:41;;;;;;;1.73;0.30;;;;;;;29.36;37.59;96804.09;4933765;28;20039;-40
2021/06/25 04:38:07;;;;;;;0.30;0.30;;;;;;;29.37;37.75;96802.31;4943934;28;20065;-38
2021/06/25 04:40:33;;;;;;;0.43;0.35;;;;;;;29.36;37.95;96804.09;4933634;28;20129;-34
2021/06/25 04:42:58;;;;;;;2.03;0.50;;;;;;;29.36;37.58;96804.09;4943870;28;20288;-32
2021/06/25 04:45:24;;;;;;;0.45;0.35;;;;;;;29.36;37.67;96808.56;4930149;28;20039;-37
2021/06/25 04:47:49;;;;;;;0.45;0.30;;;;;;;29.34;38.26;96806.00;4948291;28;20058;-40
2021/06/25 04:50:15;;;;;;;0.40;0.40;;;;;;;29.34;37.88;96806.84;4944680;28;20027;-33
2021/06/25 04:52:40;;;;;;;1.58;0.47;;;;;;;29.36;37.69;96805.91;4930776;28;20041;-38
2021/06/25 04:55:09;;;;;;;0.80;0.50;;;;;;;29.32;37.75;96803.47;4949147;28;20660;-37
2021/06/25 04:57:34;;;;;;;0.93;0.50;;;;;;;29.31;37.54;96800.94;4936531;28;20728;-38
2021/06/25 04:59:59;;;;;;;3.60;0.57;;;;;;;29.35;37.70;96807.69;4933545;28;20033;-39
2021/06/25 05:02:25;;;;;;;3.33;0.30;;;;;;;29.36;37.89;96803.28;4932877;28;20035;-38
2021/06/25 05:04:50;;;;;;;0.60;0.50;;;;;;;29.35;37.89;96807.69;4926799;28;20891;-38
2021/06/25 05:07:16;;;;;;;0.88;0.40;;;;;;;29.35;38.04;96810.34;4937681;28;20153;-38
2021/06/25 05:09:41;;;;;;;3.45;0.60;;;;;;;29.35;37.69;96810.34;4930379;28;20039;-38
2021/06/25 05:12:07;;;;;;;4.15;0.47;;;;;;;29.35;37.69;96810.34;4935137;28;20900;-31
2021/06/25 05:14:32;;;;;;;3.75;0.60;;;;;;;29.31;37.99;96795.66;4932450;28;20058;-38
2021/06/25 05:16:58;;;;;;;0.93;0.50;;;;;;;29.35;37.60;96799.78;4927353;28;20113;-40
2021/06/25 05:19:23;;;;;;;2.20;0.40;;;;;;;29.35;38.03;96807.69;4932116;28;20031;-40
2021/06/25 05:21:49;;;;;;;1.35;0.60;;;;;;;29.36;38.03;96798.81;4935545;28;20023;-40
2021/06/25 05:24:14;;;;;;;0.88;0.40;;;;;;;29.35;37.73;96802.41;4931045;28;20042;-38
2021/06/25 05:26:39;;;;;;;1.65;0.50;;;;;;;29.35;37.72;96802.41;4965461;28;20031;-35
2021/06/25 05:29:05;;;;;;;2.38;0.60;;;;;;;29.35;37.70;96802.41;4935640;28;20049;-40
2021/06/25 05:31:30;;;;;;;3.45;0.60;;;;;;;29.36;37.84;96803.28;4931859;28;20183;-40
2021/06/25 05:33:57;;;;;;;2.55;0.43;;;;;;;29.35;37.64;96802.41;4933339;28;20038;-37
2021/06/25 05:36:22;;;;;;;0.70;0.32;;;;;;;29.36;37.80;96808.56;4931906;28;20027;-38
2021/06/25 05:38:48;;;;;;;3.72;0.50;;;;;;;29.36;37.38;96803.28;4931053;28;20686;-37
2021/06/25 05:41:14;;;;;;;2.97;0.52;;;;;;;29.36;38.07;96809.38;4936292;28;20030;-40
2021/06/25 05:43:41;;;;;;;1.00;0.30;;;;;;;29.36;37.72;96806.72;4930776;28;20018;-40
2021/06/25 05:46:07;;;;;;;1.33;0.40;;;;;;;29.35;38.01;96805.06;4929891;28;20561;-42
2021/06/25 05:48:32;;;;;;;1.55;0.40;;;;;;;29.36;37.57;96806.72;4930677;28;20030;-38
2021/06/25 05:50:58;;;;;;;2.50;0.40;;;;;;;29.36;38.06;96804.09;4930791;28;20879;-37
2021/06/25 05:53:23;;;;;;;1.67;0.40;;;;;;;29.36;38.05;96809.38;4936216;28;20027;-38
2021/06/25 05:55:49;;;;;;;0.63;0.40;;;;;;;29.36;37.81;96812.00;4933461;28;20099;-38
2021/06/25 05:58:14;;;;;;;2.60;0.50;;;;;;;29.35;38.11;96812.97;4950177;28;20026;-31
2021/06/25 06:00:40;;;;;;;3.03;0.70;;;;;;;29.35;38.04;96812.97;4928498;28;20039;-41
2021/06/25 06:03:05;;;;;;;1.17;0.50;;;;;;;29.37;37.73;96823.44;4947546;28;20019;-37
2021/06/25 06:05:30;;;;;;;1.00;0.43;;;;;;;29.36;37.79;96819.09;4933647;28;20488;-36
2021/06/25 06:07:56;;;;;;;0.50;0.35;;;;;;;29.36;37.97;96819.94;4932825;28;20211;-36
2021/06/25 06:10:21;;;;;;;3.10;0.47;;;;;;;29.36;37.84;96825.22;4939840;28;20061;-40
2021/06/25 06:12:47;;;;;;;1.90;0.50;;;;;;;29.36;37.68;96819.09;4938242;28;20379;-42
2021/06/25 06:15:15;;;;;;;0.47;0.30;;;;;;;29.36;38.00;96825.22;4937243;28;20710;-36
2021/06/25 06:17:43;;;;;;;2.88;0.50;;;;;;;29.36;37.74;96819.94;4931904;28;20030;-39
2021/06/25 06:20:13;;;;;;;1.73;0.52;;;;;;;29.35;37.84;96818.25;4938549;28;20034;-37
2021/06/25 06:33:40;;;;;;;0.35;0.30;;;;;;;29.35;37.93;96831.44;4939105;28;20135;-38
2021/06/25 06:36:17;;;;;;;6.43;0.73;;;;;;;29.34;38.04;96827.13;4932184;28;20031;-38
2021/06/25 06:38:43;;;;;;;11.05;1.30;;;;;;;29.26;37.94;96818.88;4929427;28;20592;-37
2021/06/25 06:41:08;;;;;;;9.05;0.93;;;;;;;29.33;37.91;96836.00;4931315;28;20041;-41
2021/06/25 06:43:37;;;;;;;5.93;0.60;;;;;;;29.32;37.64;96829.00;4932901;28;20022;-39
2021/06/25 06:46:03;;;;;;;5.32;0.65;;;;;;;29.30;37.77;96836.19;4933991;28;20027;-36
2021/06/25 06:48:28;;;;;;;4.30;0.55;;;;;;;29.28;37.83;96832.78;4933557;28;20043;-36
2021/06/25 06:50:55;;;;;;;13.98;0.70;;;;;;;29.27;37.59;96839.03;4929349;28;20030;-40
2021/06/25 06:53:20;;;;;;;2.55;0.65;;;;;;;29.25;37.55;96833.84;4931921;28;20729;-37
2021/06/25 06:55:46;;;;;;;1.75;0.63;;;;;;;29.24;37.66;96837.44;4962490;28;20041;-41
2021/06/25 06:58:11;;;;;;;5.05;0.50;;;;;;;29.23;37.59;96834.91;4932970;28;20035;-40
2021/06/25 07:00:37;;;;;;;1.33;0.82;;;;;;;29.21;37.52;96835.84;4930741;28;20038;-30
2021/06/25 07:03:03;;;;;;;3.17;0.60;;;;;;;29.19;37.44;96835.13;4931586;28;20034;-35
2021/06/25 07:05:28;;;;;;;2.90;0.60;;;;;;;29.18;37.74;96828.13;4930134;28;20607;-37
2021/06/25 07:07:54;;;;;;;4.45;0.80;;;;;;;29.17;37.62;96839.66;4933910;28;20026;-38
2021/06/25 07:10:19;;;;;;;1.55;0.77;;;;;;;29.16;37.66;96835.31;4935384;28;20700;-34
2021/06/25 07:12:45;;;;;;;3.95;0.68;;;;;;;29.17;37.84;96841.44;4931693;28;20038;-39
2021/06/25 07:15:11;;;;;;;3.40;0.73;;;;;;;29.16;37.38;96834.47;4931900;28;20743;-32
2021/06/25 07:17:36;;;;;;;1.40;0.73;;;;;;;29.15;37.58;96832.78;4933158;28;20047;-36
2021/06/25 07:20:03;;;;;;;2.00;0.80;;;;;;;29.14;37.71;96836.38;4930614;28;20040;-32
2021/06/25 07:22:29;;;;;;;2.13;1.02;;;;;;;29.12;37.75;96833.84;4929112;28;20043;-32
2021/06/25 07:24:54;;;;;;;1.02;0.80;;;;;;;29.12;37.70;96844.38;4930769;28;20041;-33
2021/06/25 07:27:20;;;;;;;1.83;0.90;;;;;;;29.10;37.59;96834.88;4933525;28;20022;-37
2021/06/25 07:29:45;;;;;;;3.65;1.00;;;;;;;29.07;38.18;96833.31;4931243;28;20031;-37
2021/06/25 07:32:11;;;;;;;1.17;0.70;;;;;;;29.03;37.42;96839.72;4929771;28;20114;-40
2021/06/25 07:34:36;;;;;;;1.20;1.02;;;;;;;28.95;36.67;96833.16;4946498;28;20199;-39
2021/06/25 07:37:02;;;;;;;0.95;0.90;;;;;;;28.87;37.05;96840.69;4932372;28;20438;-39
2021/06/25 07:39:27;;;;;;;2.35;0.90;;;;;;;28.78;37.35;96849.19;4931239;28;20058;-35
2021/06/25 07:41:53;;;;;;;1.75;1.27;;;;;;;28.68;37.61;96841.88;4930340;28;20039;-41
2021/06/25 07:44:18;;;;;;;1.17;0.88;;;;;;;28.60;37.50;96840.69;4930802;28;20680;-35
2021/06/25 07:46:43;;;;;;;6.78;1.00;;;;;;;28.53;37.72;96838.44;4929783;28;20652;-32
2021/06/25 07:49:09;;;;;;;2.28;1.00;;;;;;;28.49;38.02;96841.38;4930955;28;20602;-38
2021/06/25 07:51:34;;;;;;;2.30;1.02;;;;;;;28.46;38.13;96844.22;4930545;28;20039;-34
2021/06/25 07:54:00;;;;;;;2.00;0.80;;;;;;;28.43;38.06;96832.94;4928498;28;20090;-38
2021/06/25 07:56:25;;;;;;;2.72;0.85;;;;;;;28.41;38.24;96842.72;4929456;28;20023;-32
2021/06/25 07:58:51;;;;;;;0.60;0.60;;;;;;;28.41;38.46;96836.56;4931950;28;20092;-41
2021/06/25 08:01:16;;;;;;;1.95;0.90;;;;;;;28.37;38.25;96843.84;4928489;28;20724;-40
2021/06/25 08:03:41;;;;;;;2.05;0.80;;;;;;;28.37;38.41;96841.19;4928515;28;20291;-41
2021/06/25 08:06:07;;;;;;;2.28;1.30;;;;;;;28.35;38.48;96836.97;4944335;28;20027;-33
2021/06/25 08:08:33;;;;;;;4.15;2.78;;;;;;;28.36;38.55;96839.53;4932542;28;20035;-32
2021/06/25 08:10:58;;;;;;;2.15;1.23;;;;;;;28.35;38.70;96837.84;4942364;28;20062;-38
2021/06/25 08:13:23;;;;;;;1.35;1.08;;;;;;;28.35;38.42;96843.09;4930769;28;20043;-38
2021/06/25 08:15:49;;;;;;;1.55;0.93;;;;;;;28.34;38.26;96844.03;4928407;28;20035;-38
2021/06/25 08:18:18;;;;;;;1.60;1.10;;;;;;;28.34;38.41;96845.84;4932958;28;20093;-36
2021/06/25 08:20:44;;;;;;;7.22;1.35;;;;;;;28.32;38.20;96847.69;4933300;28;20101;-41
2021/06/25 08:23:09;;;;;;;8.07;1.38;;;;;;;28.30;38.18;96847.81;4934861;28;20077;-32
2021/06/25 08:25:38;;;;;;;5.57;1.40;;;;;;;28.29;38.00;96840.84;4936202;28;20440;-39
2021/06/25 08:28:06;;;;;;;5.88;1.08;;;;;;;28.28;38.00;96849.69;4928571;28;20529;-32
2021/06/25 08:30:32;;;;;;;2.05;1.08;;;;;;;28.27;37.93;96842.75;4928145;28;20698;-39
2021/06/25 08:32:58;;;;;;;1.52;0.80;;;;;;;28.25;37.97;96844.56;4933896;28;20130;-33
2021/06/25 08:35:28;;;;;;;1.77;1.00;;;;;;;28.23;38.22;96839.44;4929251;28;20735;-37
2021/06/25 08:37:53;;;;;;;1.48;0.65;;;;;;;28.23;38.02;96841.19;4930926;28;20039;-40
2021/06/25 08:40:19;;;;;;;1.23;0.80;;;;;;;28.21;38.29;96846.56;4930658;28;20038;-32
2021/06/25 08:42:44;;;;;;;1.38;0.80;;;;;;;28.22;38.31;96850.06;4931247;28;20019;-35
2021/06/25 08:45:11;;;;;;;1.08;0.80;;;;;;;28.20;38.09;96852.78;4943280;28;20034;-35
2021/06/25 08:47:47;;;;;;;1.10;0.65;;;;;;;28.21;37.91;96853.59;4929972;28;20076;-36
2021/06/25 08:50:15;;;;;;;2.38;0.80;;;;;;;28.19;38.02;96856.38;4958868;28;20039;-37
2021/06/25 08:52:48;;;;;;;5.15;0.80;;;;;;;28.17;37.71;96848.56;4929622;28;20158;-40
2021/06/25 08:55:16;;;;;;;0.82;0.60;;;;;;;28.15;37.60;96855.69;4945214;28;20031;-36
2021/06/25 08:57:44;;;;;;;1.88;0.90;;;;;;;28.17;37.76;96858.22;4944995;28;20114;-37
2021/06/25 09:00:11;;;;;;;0.60;0.60;;;;;;;28.17;37.71;96864.34;4928875;28;20537;-34
2021/06/25 09:02:36;;;;;;;1.95;0.80;;;;;;;28.20;37.67;96862.47;4960391;28;20826;-37
2021/06/25 09:05:22;;;;;;;4.30;0.90;;;;;;;28.22;37.80;96864.06;4930282;28;20027;-36
2021/06/25 09:07:48;;;;;;;2.50;1.27;;;;;;;28.25;37.53;96861.28;4960717;28;20700;-40
2021/06/25 09:10:14;;;;;;;4.72;1.60;;;;;;;28.29;38.00;96868.03;4961339;28;20034;-38
2021/06/25 09:12:39;;;;;;;3.72;1.60;;;;;;;28.33;38.14;96866.06;4932775;28;20039;-39
2021/06/25 09:15:12;;;;;;;3.45;1.60;;;;;;;28.36;38.03;96868.50;4935630;28;20023;-30
2021/06/25 09:17:58;;;;;;;7.68;1.88;;;;;;;28.41;38.42;96866.44;4938502;28;21126;-38
2021/06/25 09:20:34;;;;;;;10.10;2.45;;;;;;;28.43;38.21;96872.47;4937934;28;20019;-37
2021/06/25 09:23:04;;;;;;;8.00;2.55;;;;;;;28.47;38.03;96870.47;4935168;28;20062;-39
2021/06/25 09:25:30;;;;;;;5.70;2.03;;;;;;;28.50;37.85;96872.06;4934309;28;20031;-37
2021/06/25 09:27:57;;;;;;;8.85;2.45;;;;;;;28.53;38.10;96872.72;4964373;28;20042;-33
2021/06/25 09:30:23;;;;;;;4.30;1.90;;;;;;;28.55;38.06;96872.63;4931929;28;20516;-33
2021/06/25 09:32:49;;;;;;;7.85;2.30;;;;;;;28.60;38.05;96878.44;4951394;28;20040;-32
2021/06/25 09:35:23;;;;;;;5.55;2.00;;;;;;;28.62;37.80;96871.28;4936040;28;20392;-33
2021/06/25 09:37:49;;;;;;;7.32;2.20;;;;;;;28.64;37.97;96876.47;4935707;28;20034;-37
2021/06/25 09:40:16;;;;;;;7.18;2.47;;;;;;;28.67;38.02;96874.47;4935892;28;20202;-40
2021/06/25 09:42:45;;;;;;;7.60;2.28;;;;;;;28.69;38.12;96869.09;4937039;28;20030;-39
2021/06/25 09:45:19;;;;;;;5.00;1.83;;;;;;;28.72;38.13;96868.06;4941263;28;20824;-38
2021/06/25 09:47:51;;;;;;;5.07;2.00;;;;;;;28.74;38.04;96867.03;4943566;28;20034;-30
2021/06/25 09:50:17;;;;;;;4.63;1.70;;;;;;;28.75;37.86;96871.34;4941341;28;20577;-40
2021/06/25 09:52:46;;;;;;;4.88;2.00;;;;;;;28.77;38.02;96872.09;4937788;28;20450;-35
2021/06/25 09:55:11;;;;;;;4.47;2.10;;;;;;;28.79;38.03;96877.25;4940561;28;20030;-43
2021/06/25 10:03:52;;;;;;;6.68;2.05;;;;;;;28.85;38.19;96879.50;4939494;28;20033;-41
2021/06/25 10:06:21;;;;;;;3.78;1.77;;;;;;;28.86;38.04;96875.06;4938021;28;20034;-33
2021/06/25 10:08:47;;;;;;;5.05;1.70;;;;;;;28.87;37.79;96877.59;4940013;28;20069;-39
2021/06/25 10:11:14;;;;;;;3.15;1.67;;;;;;;28.88;38.04;96883.75;4930997;28;20054;-38
2021/06/25 10:13:41;;;;;;;4.38;1.90;;;;;;;28.89;38.19;96881.03;4934051;28;20043;-39
2021/06/25 10:16:07;;;;;;;3.83;1.60;;;;;;;28.91;37.99;96884.41;4948472;28;20319;-39
2021/06/25 10:18:46;;;;;;;5.70;1.70;;;;;;;28.92;37.96;96870.28;4933829;28;20030;-34
2021/06/25 10:21:14;;;;;;;4.25;1.65;;;;;;;28.94;37.97;96878.94;4932346;28;20131;-41
2021/06/25 10:23:40;;;;;;;3.55;1.45;;;;;;;28.95;38.03;96880.63;4934265;28;20580;-33
2021/06/25 10:26:08;;;;;;;6.10;2.00;;;;;;;28.97;38.11;96877.03;4933496;28;20053;-41
2021/06/25 10:28:38;;;;;;;4.20;1.95;;;;;;;28.98;37.31;96884.03;4934130;28;20043;-39
2021/06/25 10:31:04;;;;;;;5.75;1.85;;;;;;;28.96;36.82;96884.13;4933811;28;20069;-42
2021/06/25 10:33:30;;;;;;;4.32;2.00;;;;;;;28.93;36.26;96893.09;4934925;28;20531;-38
2021/06/25 10:35:56;;;;;;;2.95;2.05;;;;;;;28.89;36.15;96894.22;4935746;28;20413;-39
2021/06/25 10:38:26;;;;;;;6.25;2.17;;;;;;;28.87;36.07;96897.88;4931658;28;20065;-40
2021/06/25 10:40:57;;;;;;;11.65;2.10;;;;;;;28.85;36.37;96892.69;4947840;28;20037;-38
2021/06/25 10:43:49;;;;;;;9.45;2.88;;;;;;;28.82;36.08;96901.66;4931125;28;20040;-33
2021/06/25 10:46:29;;;;;;;4.93;2.08;;;;;;;28.81;36.13;96896.47;4932384;28;20445;-35
2021/06/25 10:48:59;;;;;;;7.07;2.03;;;;;;;28.78;36.06;96899.31;4933213;28;20034;-39
2021/06/25 10:51:33;;;;;;;5.75;2.05;;;;;;;28.76;35.87;96901.22;4931658;28;20565;-40
2021/06/25 10:54:18;;;;;;;5.38;2.35;;;;;;;28.73;36.29;96906.66;4932806;28;20918;-36
2021/06/25 10:56:49;;;;;;;3.83;2.72;;;;;;;28.72;36.27;96903.16;4933218;28;20041;-34
2021/06/25 10:59:19;;;;;;;4.85;2.55;;;;;;;28.72;36.32;96910.25;4932689;28;20035;-41
2021/06/25 11:01:53;;;;;;;3.00;2.53;;;;;;;28.71;36.51;96900.66;4932068;28;20133;-43
2021/06/25 11:04:38;;;;;;;8.60;2.75;;;;;;;28.71;35.96;96904.13;4933616;28;20015;-41
2021/06/25 11:07:11;;;;;;;6.75;3.22;;;;;;;28.71;35.36;96905.94;4933022;28;20034;-36
2021/06/25 11:09:52;;;;;;;8.88;3.15;;;;;;;28.66;34.64;96899.16;4963805;28;20305;-30
2021/06/25 11:12:19;;;;;;;4.10;3.27;;;;;;;28.60;34.82;96899.53;4931000;28;20035;-31
2021/06/25 11:14:44;;;;;;;3.10;2.80;;;;;;;28.54;34.72;96897.28;4936248;28;20294;-35
2021/06/25 11:17:10;;;;;;;4.63;2.53;;;;;;;28.47;34.55;96903.88;4933965;28;20030;-33
2021/06/25 11:19:36;;;;;;;3.53;2.95;;;;;;;28.39;34.86;96905.22;4940746;28;20737;-37
2021/06/25 11:22:02;;;;;;;5.30;2.80;;;;;;;28.32;34.89;96903.03;4934181;28;20049;-37
2021/06/25 11:24:53;;;;;;;5.00;3.20;;;;;;;28.21;35.06;96890.50;4930811;28;20840;-31
2021/06/25 11:27:19;;;;;;;3.35;2.65;;;;;;;28.18;35.27;96907.34;4929476;28;20027;-39
2021/06/25 11:29:45;;;;;;;5.88;3.15;;;;;;;28.12;35.26;96902.47;4932220;28;20034;-37
2021/06/25 11:32:11;;;;;;;8.23;3.50;;;;;;;28.06;35.40;96908.13;4944779;28;20130;-34
2021/06/25 11:34:36;;;;;;;4.75;2.42;;;;;;;28.00;35.42;96901.44;4935484;28;20026;-30
2021/06/25 11:37:02;;;;;;;5.10;2.42;;;;;;;27.93;35.26;96903.59;4932021;28;20030;-36
2021/06/25 11:39:28;;;;;;;5.50;2.40;;;;;;;27.90;35.24;96899.34;4943941;28;20357;-32
2021/06/25 11:41:55;;;;;;;11.15;3.95;;;;;;;27.87;35.79;96903.94;4931527;28;20059;-36
2021/06/25 11:44:28;;;;;;;13.82;5.43;;;;;;;27.85;35.88;96909.31;4931574;28;20110;-38
2021/06/25 11:47:10;;;;;;;7.45;4.03;;;;;;;27.83;36.22;96900.66;4930424;28;20027;-34
2021/06/25 11:49:42;;;;;;;11.38;3.42;;;;;;;27.83;35.96;96898.00;4931966;28;20038;-38